createdAt,value
2018-10-11T00:00:38.082Z,21.93
2018-10-11T00:03:08.040Z,20.67
2018-10-11T00:05:37.857Z,20.87
2018-10-11T00:08:07.842Z,21.03
2018-10-11T00:10:37.566Z,19.40
2018-10-11T00:13:07.152Z,20.57
2018-10-11T00:15:36.779Z,20.07
2018-10-11T00:18:06.418Z,20.53
2018-10-11T00:20:36.050Z,20.03
2018-10-11T00:23:05.633Z,19.80
2018-10-11T00:25:35.330Z,19.30
2018-10-11T00:28:04.875Z,20.13
2018-10-11T00:30:34.443Z,19.00
2018-10-11T00:33:04.065Z,19.90
2018-10-11T00:35:33.645Z,20.00
2018-10-11T00:38:03.286Z,20.27
2018-10-11T00:40:32.848Z,20.87
2018-10-11T00:43:02.444Z,19.57
2018-10-11T00:45:32.037Z,19.23
2018-10-11T00:48:01.681Z,19.10
2018-10-11T00:50:31.293Z,19.37
2018-10-11T00:53:00.836Z,18.50
2018-10-11T00:55:30.502Z,19.97
2018-10-11T00:58:00.121Z,18.57
2018-10-11T01:00:29.662Z,20.33
2018-10-11T01:02:59.286Z,20.10
2018-10-11T01:05:28.802Z,19.20
2018-10-11T01:07:58.391Z,18.70
2018-10-11T01:10:28.028Z,18.87
2018-10-11T01:12:57.666Z,18.43
2018-10-11T01:15:27.204Z,18.60
2018-10-11T01:17:56.819Z,18.57
2018-10-11T01:20:26.491Z,18.43
2018-10-11T01:22:56.269Z,18.43
2018-10-11T01:25:25.846Z,18.17
2018-10-11T01:27:55.623Z,18.53
2018-10-11T01:30:25.721Z,18.93
2018-10-11T01:32:55.307Z,18.57
2018-10-11T01:35:25.187Z,18.43
2018-10-11T01:37:55.177Z,18.60
2018-10-11T01:40:25.148Z,18.50
2018-10-11T01:43:05.863Z,17.10
2018-10-11T01:45:36.020Z,16.90
2018-10-11T01:48:05.595Z,18.57
2018-10-11T01:50:35.228Z,18.23
2018-10-11T01:53:06.154Z,18.50
2018-10-11T01:55:35.715Z,18.67
2018-10-11T01:58:05.343Z,17.70
2018-10-11T02:00:34.889Z,18.03
2018-10-11T02:03:04.488Z,17.57
2018-10-11T02:05:34.083Z,17.43
2018-10-11T02:08:03.691Z,16.73
2018-10-11T02:10:33.312Z,19.70
2018-10-11T02:13:02.921Z,17.73
2018-10-11T02:15:32.542Z,18.47
2018-10-11T02:18:02.137Z,18.23
2018-10-11T02:20:31.736Z,20.00
2018-10-11T02:23:01.343Z,19.87
2018-10-11T02:25:30.966Z,19.60
2018-10-11T02:28:00.566Z,19.40
2018-10-11T02:30:30.195Z,24.50
2018-10-11T02:32:59.864Z,25.80
2018-10-11T02:35:29.460Z,26.37
2018-10-11T02:37:58.990Z,26.43
2018-10-11T02:40:28.538Z,27.23
2018-10-11T02:42:58.185Z,26.97
2018-10-11T02:45:27.716Z,25.57
2018-10-11T02:47:57.350Z,25.73
2018-10-11T02:50:26.949Z,26.67
2018-10-11T02:52:56.508Z,25.70
2018-10-11T02:55:27.757Z,27.37
2018-10-11T02:58:08.256Z,26.13
2018-10-11T03:00:38.097Z,24.70
2018-10-11T03:03:11.649Z,24.50
2018-10-11T03:05:43.302Z,25.27
2018-10-11T03:08:19.696Z,26.00
2018-10-11T03:10:50.036Z,25.10
2018-10-11T03:13:19.705Z,23.10
2018-10-11T03:15:49.414Z,22.77
2018-10-11T03:18:19.065Z,22.37
2018-10-11T03:20:48.646Z,22.97
2018-10-11T03:23:18.298Z,21.20
2018-10-11T03:25:47.873Z,21.30
2018-10-11T03:28:18.433Z,21.63
2018-10-11T03:30:48.014Z,21.00
2018-10-11T03:33:17.599Z,21.30
2018-10-11T03:35:47.228Z,20.53
2018-10-11T03:38:16.831Z,21.40
2018-10-11T03:40:46.411Z,21.40
2018-10-11T03:43:15.994Z,21.80
2018-10-11T03:45:45.677Z,21.53
2018-10-11T03:48:15.318Z,22.57
2018-10-11T03:50:44.922Z,21.67
2018-10-11T03:53:14.556Z,21.80
2018-10-11T03:55:44.175Z,22.00
2018-10-11T03:58:13.744Z,22.03
2018-10-11T04:00:43.596Z,22.07
2018-10-11T04:03:13.190Z,22.87
2018-10-11T04:05:42.773Z,23.37
2018-10-11T04:08:12.452Z,22.67
2018-10-11T04:10:42.048Z,23.97
2018-10-11T04:13:11.846Z,30.70
2018-10-11T04:15:41.509Z,23.27
2018-10-11T04:18:11.279Z,23.17
2018-10-11T04:20:40.882Z,23.57
2018-10-11T04:23:14.528Z,24.13
2018-10-11T04:25:44.143Z,23.33
2018-10-11T04:28:13.697Z,23.57
2018-10-11T04:30:43.297Z,21.80
2018-10-11T04:33:12.928Z,22.27
2018-10-11T04:35:42.557Z,23.00
2018-10-11T04:38:12.242Z,23.73
2018-10-11T04:40:42.559Z,22.80
2018-10-11T04:43:12.970Z,22.23
2018-10-11T04:45:43.716Z,22.07
2018-10-11T04:48:14.454Z,23.23
2018-10-11T04:50:45.980Z,22.23
2018-10-11T04:53:16.650Z,22.30
2018-10-11T04:59:04.663Z,25.33
2018-10-11T05:01:34.960Z,23.67
2018-10-11T05:04:05.019Z,22.37
2018-10-11T05:06:35.004Z,23.37
2018-10-11T05:09:04.998Z,23.17
2018-10-11T05:11:35.530Z,22.63
2018-10-11T05:14:05.301Z,22.13
2018-10-11T05:16:34.993Z,22.17
2018-10-11T05:19:05.839Z,23.83
2018-10-11T05:21:36.209Z,25.50
2018-10-11T05:24:06.381Z,23.27
2018-10-11T05:26:36.069Z,24.50
2018-10-11T05:29:06.346Z,24.30
2018-10-11T05:31:36.615Z,22.43
2018-10-11T05:34:07.070Z,23.73
2018-10-11T05:36:36.938Z,23.17
2018-10-11T05:39:08.140Z,24.87
2018-10-11T05:41:37.976Z,23.90
2018-10-11T05:44:08.528Z,24.30
2018-10-11T05:46:40.049Z,23.63
2018-10-11T05:49:10.324Z,24.77
2018-10-11T05:51:40.933Z,24.73
2018-10-11T05:54:11.422Z,24.63
2018-10-11T05:56:43.718Z,24.63
2018-10-11T05:59:14.262Z,26.30
2018-10-11T06:01:44.125Z,26.33
2018-10-11T06:04:14.417Z,25.00
2018-10-11T06:06:47.205Z,26.83
2018-10-11T06:09:17.327Z,24.60
2018-10-11T06:11:47.524Z,23.70
2018-10-11T06:14:18.125Z,24.30
2018-10-11T06:16:47.877Z,23.37
2018-10-11T06:19:17.896Z,23.30
2018-10-11T06:21:47.696Z,25.23
2018-10-11T06:24:17.297Z,23.80
2018-10-11T06:26:46.909Z,24.17
2018-10-11T06:29:17.105Z,23.20
2018-10-11T06:31:46.906Z,23.23
2018-10-11T06:34:17.329Z,24.43
2018-10-11T06:36:47.219Z,22.50
2018-10-11T06:39:17.525Z,22.00
2018-10-11T06:55:20.708Z,23.67
2018-10-11T06:57:50.339Z,29.60
2018-10-11T07:00:29.991Z,22.80
2018-10-11T07:02:59.693Z,22.77
2018-10-11T07:05:36.442Z,20.57
2018-10-11T07:08:06.056Z,20.63
2018-10-11T07:11:01.838Z,18.43
2018-10-11T07:17:01.542Z,18.32
2018-10-11T07:19:31.680Z,18.30
2018-10-11T07:22:01.374Z,17.47
2018-10-11T07:24:31.021Z,17.25
2018-10-11T07:27:01.949Z,16.93
2018-10-11T07:29:31.804Z,16.50
2018-10-11T07:32:02.795Z,16.97
2018-10-11T07:34:32.481Z,17.57
2018-10-11T07:37:03.002Z,15.70
2018-10-11T07:39:32.713Z,16.13
2018-10-11T07:42:02.436Z,16.30
2018-10-11T07:44:42.465Z,16.73
2018-10-11T07:47:13.083Z,16.23
2018-10-11T07:49:47.285Z,15.87
2018-10-11T07:52:16.835Z,18.20
2018-10-11T07:54:47.890Z,16.17
2018-10-11T07:57:20.145Z,16.30
2018-10-11T08:00:05.940Z,16.45
2018-10-11T08:02:41.746Z,14.80
2018-10-11T08:05:11.504Z,16.00
2018-10-11T08:07:41.230Z,14.87
2018-10-11T08:10:18.703Z,14.85
2018-10-11T08:12:55.252Z,16.73
2018-10-11T08:15:24.978Z,15.63
2018-10-11T08:17:55.334Z,16.20
2018-10-11T08:20:24.843Z,15.50
2018-10-11T08:22:57.485Z,14.07
2018-10-11T08:25:27.245Z,15.63
2018-10-11T08:28:03.597Z,15.07
2018-10-11T08:30:33.919Z,14.27
2018-10-11T08:33:12.846Z,16.60
2018-10-11T08:35:46.630Z,15.70
2018-10-11T08:38:17.193Z,15.27
2018-10-11T08:40:46.776Z,14.50
2018-10-11T08:43:16.479Z,17.07
2018-10-11T08:45:46.265Z,17.77
2018-10-11T08:48:15.986Z,14.98
2018-10-11T08:50:46.089Z,14.80
2018-10-11T08:53:15.821Z,19.67
2018-10-11T08:55:45.721Z,14.87
2018-10-11T08:58:15.399Z,15.03
2018-10-11T09:00:45.609Z,17.47
2018-10-11T09:03:15.359Z,15.87
2018-10-11T09:05:44.973Z,16.67
2018-10-11T09:08:15.000Z,14.90
2018-10-11T09:10:45.299Z,15.57
2018-10-11T09:13:16.000Z,16.00
2018-10-11T09:15:49.142Z,15.43
2018-10-11T09:18:22.295Z,18.53
2018-10-11T09:20:53.432Z,14.90
2018-10-11T09:23:23.576Z,15.43
2018-10-11T09:25:53.725Z,13.83
2018-10-11T09:28:23.557Z,16.27
2018-10-11T09:30:53.813Z,18.00
2018-10-11T09:34:11.016Z,15.47
2018-10-11T09:36:47.650Z,14.98
2018-10-11T09:39:17.906Z,15.80
2018-10-11T09:42:08.368Z,20.63
2018-10-11T09:44:44.571Z,13.80
2018-10-11T09:47:24.651Z,15.08
2018-10-11T09:49:54.253Z,18.30
2018-10-11T09:52:23.804Z,14.93
2018-10-11T09:54:54.158Z,15.63
2018-10-11T09:57:38.851Z,14.97
2018-10-11T10:00:15.433Z,14.80
2018-10-11T10:03:25.915Z,16.20
2018-10-11T10:06:04.251Z,20.87
2018-10-11T10:11:11.446Z,16.95
2018-10-11T10:13:41.156Z,16.03
2018-10-11T10:16:10.887Z,17.42
2018-10-11T10:18:40.581Z,14.27
2018-10-11T10:21:10.350Z,15.03
2018-10-11T10:39:46.197Z,15.73
2018-10-11T10:42:18.812Z,16.33
2018-10-11T10:44:48.443Z,15.50
2018-10-11T10:47:19.401Z,17.97
2018-10-11T10:49:49.155Z,19.00
2018-10-11T10:52:20.020Z,16.50
2018-10-11T10:54:49.677Z,16.83
2018-10-11T10:57:19.272Z,14.83
2018-10-11T10:59:49.501Z,15.90
2018-10-11T11:02:19.721Z,16.73
2018-10-11T11:04:56.299Z,16.73
2018-10-11T11:07:25.989Z,15.63
2018-10-11T11:10:07.074Z,16.90
2018-10-11T11:12:37.549Z,16.07
2018-10-11T11:15:08.028Z,15.80
2018-10-11T11:20:16.971Z,15.27
2018-10-11T11:29:22.772Z,14.93
2018-10-11T11:35:27.980Z,14.10
2018-10-11T11:37:57.677Z,14.30
2018-10-11T11:40:27.301Z,14.13
2018-10-11T11:42:56.900Z,16.37
2018-10-11T11:45:26.587Z,15.53
2018-10-11T11:47:56.235Z,13.30
2018-10-11T11:50:25.910Z,15.23
2018-10-11T11:52:55.570Z,15.35
2018-10-11T11:55:26.053Z,17.17
2018-10-11T11:57:56.371Z,15.93
2018-10-11T12:00:28.443Z,13.60
2018-10-11T12:03:00.291Z,13.80
2018-10-11T12:05:32.115Z,13.70
2018-10-11T12:08:04.532Z,15.60
2018-10-11T12:10:37.020Z,15.17
2018-10-11T12:13:18.152Z,13.47
2018-10-11T12:16:01.363Z,13.80
2018-10-11T12:18:40.997Z,15.70
2018-10-11T12:43:03.741Z,13.48
2018-10-11T13:02:22.757Z,14.60
2018-10-11T13:08:20.608Z,13.20
2018-10-11T13:10:50.269Z,13.03
2018-10-11T13:13:19.862Z,15.48
2018-10-11T13:15:49.581Z,13.47
2018-10-11T13:18:19.569Z,13.75
2018-10-11T13:20:49.309Z,13.70
2018-10-11T13:23:18.911Z,14.00
2018-10-11T13:25:48.530Z,12.40
2018-10-11T13:28:18.056Z,14.93
2018-10-11T13:30:47.565Z,12.85
2018-10-11T13:33:17.193Z,13.67
2018-10-11T13:35:46.773Z,13.90
2018-10-11T13:38:16.392Z,17.43
2018-10-11T13:40:46.090Z,18.87
2018-10-11T13:43:15.596Z,17.20
2018-10-11T13:45:45.305Z,12.97
2018-10-11T13:48:14.938Z,13.87
2018-10-11T13:50:44.505Z,13.57
2018-10-11T13:53:17.019Z,16.70
2018-10-11T13:55:46.943Z,16.03
2018-10-11T13:58:13.354Z,14.07
2018-10-11T14:00:43.102Z,16.37
2018-10-11T14:03:12.724Z,14.20
2018-10-11T14:05:42.364Z,15.27
2018-10-11T14:08:11.946Z,15.57
2018-10-11T14:10:41.789Z,16.90
2018-10-11T14:13:15.090Z,15.83
2018-10-11T14:15:40.831Z,15.13
2018-10-11T14:18:12.402Z,17.67
2018-10-11T14:20:40.190Z,14.77
2018-10-11T14:23:09.818Z,15.70
2018-10-11T14:25:39.450Z,16.17
2018-10-11T14:28:09.136Z,16.33
2018-10-11T14:30:38.740Z,14.33
2018-10-11T14:33:08.371Z,15.60
2018-10-11T14:35:38.365Z,15.13
2018-10-11T14:38:08.164Z,15.30
2018-10-11T14:40:37.855Z,17.13
2018-10-11T14:43:07.684Z,15.57
2018-10-11T14:45:37.231Z,15.40
2018-10-11T14:48:07.102Z,15.77
2018-10-11T14:50:36.717Z,15.30
2018-10-11T14:53:06.385Z,15.97
2018-10-11T14:55:36.174Z,15.37
2018-10-11T14:58:05.874Z,15.17
2018-10-11T15:00:35.517Z,15.57
2018-10-11T15:03:05.344Z,16.23
2018-10-11T15:05:35.843Z,18.70
2018-10-11T15:08:05.515Z,17.00
2018-10-11T15:10:35.159Z,16.93
2018-10-11T15:13:04.734Z,15.90
2018-10-11T15:15:34.330Z,20.13
2018-10-11T15:18:03.913Z,21.40
2018-10-11T15:20:33.584Z,22.83
2018-10-11T15:23:03.365Z,25.07
2018-10-11T15:25:33.009Z,23.03
2018-10-11T15:28:02.783Z,24.63
2018-10-11T15:30:32.334Z,23.67
2018-10-11T15:33:01.969Z,24.17
2018-10-11T15:35:31.545Z,22.23
2018-10-11T15:38:01.177Z,26.50
2018-10-11T15:40:30.766Z,23.77
2018-10-11T15:43:00.388Z,21.23
2018-10-11T15:45:30.101Z,26.30
2018-10-11T15:47:59.687Z,26.03
2018-10-11T15:50:29.325Z,26.70
2018-10-11T15:52:59.061Z,25.20
2018-10-11T15:55:28.756Z,28.27
2018-10-11T15:57:58.423Z,27.77
2018-10-11T16:00:28.169Z,28.63
2018-10-11T16:02:57.862Z,25.57
2018-10-11T16:05:27.544Z,25.13
2018-10-11T16:07:57.143Z,28.13
2018-10-11T16:10:26.734Z,28.60
2018-10-11T16:12:56.468Z,25.23
2018-10-11T16:15:26.142Z,31.80
2018-10-11T16:17:55.775Z,26.03
2018-10-11T16:20:25.389Z,23.80
2018-10-11T16:22:54.979Z,28.23
2018-10-11T16:25:24.755Z,24.83
2018-10-11T16:27:54.494Z,24.70
2018-10-11T16:30:24.828Z,22.77
2018-10-11T16:32:54.446Z,23.00
2018-10-11T16:35:24.033Z,20.93
2018-10-11T16:37:53.788Z,22.87
2018-10-11T16:40:23.601Z,22.17
2018-10-11T16:42:53.203Z,21.23
2018-10-11T16:45:23.104Z,21.73
2018-10-11T16:47:52.758Z,20.67
2018-10-11T16:50:22.684Z,21.57
2018-10-11T16:52:52.757Z,23.63
2018-10-11T16:55:22.601Z,22.53
2018-10-11T16:57:52.956Z,22.43
2018-10-11T17:00:23.213Z,22.27
2018-10-11T17:02:53.453Z,22.30
2018-10-11T17:05:23.916Z,21.90
2018-10-11T17:07:54.534Z,21.50
2018-10-11T17:10:25.037Z,20.90
2018-10-11T17:12:55.500Z,21.47
2018-10-11T17:15:26.029Z,21.83
2018-10-11T17:17:56.397Z,20.57
2018-10-11T17:20:26.735Z,49.57
2018-10-11T17:22:57.212Z,61.57
2018-10-11T17:25:27.648Z,40.70
2018-10-11T17:27:58.039Z,44.03
2018-10-11T17:30:28.517Z,36.77
2018-10-11T17:32:58.933Z,34.70
2018-10-11T17:35:29.396Z,40.37
2018-10-11T17:37:59.825Z,47.87
2018-10-11T17:40:30.148Z,54.97
2018-10-11T17:43:00.547Z,38.20
2018-10-11T17:45:30.936Z,28.97
2018-10-11T17:48:01.521Z,26.27
2018-10-11T17:50:32.061Z,24.70
2018-10-11T17:53:02.428Z,25.67
2018-10-11T17:55:32.809Z,29.37
2018-10-11T17:58:03.217Z,27.73
2018-10-11T18:00:33.734Z,26.40
2018-10-11T18:03:04.158Z,26.50
2018-10-11T18:05:35.566Z,27.07
2018-10-11T18:08:06.141Z,25.23
2018-10-11T18:10:36.624Z,26.50
2018-10-11T18:13:07.241Z,26.63
2018-10-11T18:15:37.669Z,27.67
2018-10-11T18:18:08.155Z,26.50
2018-10-11T18:20:38.561Z,27.60
2018-10-11T18:23:08.984Z,30.87
2018-10-11T18:25:39.315Z,34.63
2018-10-11T18:28:09.891Z,37.43
2018-10-11T18:30:40.209Z,36.03
2018-10-11T18:33:10.448Z,36.10
2018-10-11T18:35:40.578Z,33.97
2018-10-11T18:38:10.920Z,34.57
2018-10-11T18:40:41.250Z,33.03
2018-10-11T18:43:11.592Z,34.23
2018-10-11T18:45:41.944Z,33.00
2018-10-11T18:48:12.367Z,30.83
2018-10-11T18:50:42.752Z,33.43
2018-10-11T18:53:14.276Z,29.70
2018-10-11T18:55:45.975Z,29.40
2018-10-11T18:58:16.413Z,29.93
2018-10-11T19:00:46.955Z,29.07
2018-10-11T19:03:17.364Z,28.20
2018-10-11T19:05:47.755Z,27.93
2018-10-11T19:08:18.258Z,28.73
2018-10-11T19:10:48.676Z,29.30
2018-10-11T19:13:19.103Z,29.33
2018-10-11T19:15:49.425Z,29.83
2018-10-11T19:18:19.875Z,30.97
2018-10-11T19:20:50.480Z,31.43
2018-10-11T19:23:21.545Z,33.07
2018-10-11T19:25:51.903Z,32.53
2018-10-11T19:28:22.400Z,29.97
2018-10-11T19:30:52.845Z,30.10
2018-10-11T19:33:23.248Z,31.13
2018-10-11T19:35:53.632Z,32.20
2018-10-11T19:38:24.042Z,36.13
2018-10-11T19:40:54.403Z,32.43
2018-10-11T19:43:24.790Z,33.97
2018-10-11T19:45:55.238Z,33.47
2018-10-11T19:48:25.726Z,34.57
2018-10-11T19:50:56.100Z,34.10
2018-10-11T19:53:26.372Z,32.67
2018-10-11T19:55:56.768Z,30.60
2018-10-11T19:58:27.230Z,30.47
2018-10-11T20:00:57.526Z,30.57
2018-10-11T20:03:27.924Z,32.97
2018-10-11T20:05:58.244Z,30.57
2018-10-11T20:08:28.344Z,32.00
2018-10-11T20:10:59.551Z,32.17
2018-10-11T20:13:29.442Z,31.53
2018-10-11T20:15:59.455Z,30.57
2018-10-11T20:18:29.311Z,29.73
2018-10-11T20:20:59.098Z,30.13
2018-10-11T20:23:28.817Z,28.47
2018-10-11T20:25:58.593Z,28.43
2018-10-11T20:28:28.460Z,28.70
2018-10-11T20:30:58.252Z,29.20
2018-10-11T20:33:27.810Z,27.53
2018-10-11T20:35:57.616Z,27.03
2018-10-11T20:38:27.620Z,25.57
2018-10-11T20:40:57.428Z,25.73
2018-10-11T20:43:27.406Z,24.13
2018-10-11T20:45:56.991Z,26.67
2018-10-11T20:48:26.524Z,26.27
2018-10-11T20:50:56.145Z,23.50
2018-10-11T20:53:25.698Z,23.57
2018-10-11T20:55:55.380Z,23.53
2018-10-11T20:58:25.002Z,20.93
2018-10-11T21:00:54.626Z,21.90
2018-10-11T21:03:24.316Z,24.93
2018-10-11T21:05:54.014Z,21.27
2018-10-11T21:08:23.646Z,19.60
2018-10-11T21:10:53.210Z,19.93
2018-10-11T21:13:22.805Z,18.43
2018-10-11T21:15:52.439Z,17.97
2018-10-11T21:18:22.049Z,17.67
2018-10-11T21:20:51.657Z,18.17
2018-10-11T21:23:21.367Z,18.43
2018-10-11T21:25:50.930Z,17.93
2018-10-11T21:28:20.614Z,17.57
2018-10-11T21:30:50.309Z,17.40
2018-10-11T21:33:19.885Z,17.30
2018-10-11T21:35:49.426Z,17.47
2018-10-11T21:38:18.989Z,18.10
2018-10-11T21:40:48.655Z,18.60
2018-10-11T21:43:18.241Z,17.70
2018-10-11T21:45:47.876Z,16.57
2018-10-11T21:48:17.634Z,16.93
2018-10-11T21:50:47.214Z,17.20
2018-10-11T21:53:16.723Z,16.97
2018-10-11T21:55:46.307Z,17.50
2018-10-11T21:58:15.938Z,17.63
2018-10-11T22:00:50.790Z,17.40
2018-10-11T22:03:20.532Z,18.47
2018-10-11T22:05:50.181Z,18.10
2018-10-11T22:08:19.789Z,17.50
2018-10-11T22:10:49.557Z,18.93
2018-10-11T22:13:19.136Z,18.33
2018-10-11T22:15:48.642Z,20.33
2018-10-11T22:18:18.285Z,20.33
2018-10-11T22:20:47.880Z,18.70
2018-10-11T22:23:17.449Z,18.73
2018-10-11T22:25:47.097Z,18.00
2018-10-11T22:28:16.626Z,19.17
2018-10-11T22:30:46.186Z,19.20
2018-10-11T22:33:15.827Z,18.87
2018-10-11T22:35:45.506Z,21.67
2018-10-11T22:38:15.188Z,21.13
2018-10-11T22:40:44.805Z,22.63
2018-10-11T22:43:14.411Z,22.50
2018-10-11T22:45:44.073Z,23.50
2018-10-11T22:48:13.684Z,26.80
2018-10-11T22:50:43.412Z,28.37
2018-10-11T22:53:13.073Z,29.60
2018-10-11T22:55:42.645Z,28.37
2018-10-11T22:58:12.340Z,28.10
2018-10-11T23:00:41.995Z,29.70
2018-10-11T23:03:11.598Z,28.67
2018-10-11T23:05:41.247Z,27.87
2018-10-11T23:08:10.804Z,27.50
2018-10-11T23:10:40.366Z,27.80
2018-10-11T23:13:09.985Z,28.43
2018-10-11T23:15:39.536Z,26.40
2018-10-11T23:18:09.168Z,26.03
2018-10-11T23:20:38.760Z,27.57
2018-10-11T23:23:08.386Z,28.73
2018-10-11T23:25:37.988Z,27.70
2018-10-11T23:28:07.782Z,27.33
2018-10-11T23:30:37.516Z,26.23
2018-10-11T23:33:07.111Z,27.40
2018-10-11T23:35:36.702Z,27.20
2018-10-11T23:38:06.476Z,28.27
2018-10-11T23:40:36.031Z,28.33
2018-10-11T23:43:05.632Z,29.07
2018-10-11T23:45:35.255Z,28.97
2018-10-11T23:48:04.893Z,29.50
2018-10-11T23:50:34.567Z,29.90
2018-10-11T23:53:04.276Z,28.23
2018-10-11T23:55:33.852Z,30.03
2018-10-11T23:58:04.041Z,30.47
